sensor_id;sensor_type;location;lat;lon;timestamp;pressure;altitude;pressure_sealevel;temperature;humidity
61742;BME280;47650;49.848;9.620;2023-06-24T00:00:10;100501.50;;;16.29;73.87
61742;BME280;47650;49.848;9.620;2023-06-24T00:02:37;100511.38;;;16.28;74.15
61742;BME280;47650;49.848;9.620;2023-06-24T00:05:03;100443.28;;;15.88;73.78
61742;BME280;47650;49.848;9.620;2023-06-24T00:07:29;100503.97;;;16.22;73.44
61742;BME280;47650;49.848;9.620;2023-06-24T00:09:55;100503.28;;;16.20;73.32
61742;BME280;47650;49.848;9.620;2023-06-24T00:12:21;100490.69;;;16.12;73.25
61742;BME280;47650;49.848;9.620;2023-06-24T00:14:50;100505.63;;;16.15;73.48
61742;BME280;47650;49.848;9.620;2023-06-24T00:17:16;100468.72;;;15.92;74.07
61742;BME280;47650;49.848;9.620;2023-06-24T00:19:41;100479.09;;;15.95;73.83
61742;BME280;47650;49.848;9.620;2023-06-24T00:22:09;100490.84;;;16.03;73.99
61742;BME280;47650;49.848;9.620;2023-06-24T00:24:34;100491.78;;;15.93;75.33
61742;BME280;47650;49.848;9.620;2023-06-24T00:27:01;100495.31;;;15.94;75.13
61742;BME280;47650;49.848;9.620;2023-06-24T00:29:26;100430.56;;;15.56;74.47
61742;BME280;47650;49.848;9.620;2023-06-24T00:31:51;100487.59;;;15.91;74.24
61742;BME280;47650;49.848;9.620;2023-06-24T00:34:18;100316.13;;;14.73;75.05
61742;BME280;47650;49.848;9.620;2023-06-24T00:36:46;100499.25;;;15.82;74.72
61742;BME280;47650;49.848;9.620;2023-06-24T00:39:20;100485.50;;;15.76;74.48
61742;BME280;47650;49.848;9.620;2023-06-24T00:41:45;100462.63;;;15.56;74.79
61742;BME280;47650;49.848;9.620;2023-06-24T00:44:11;100498.47;;;15.71;74.47
61742;BME280;47650;49.848;9.620;2023-06-24T00:46:38;100493.44;;;15.68;74.46
61742;BME280;47650;49.848;9.620;2023-06-24T00:49:05;100487.66;;;15.55;74.25
61742;BME280;47650;49.848;9.620;2023-06-24T00:51:31;100494.91;;;15.63;74.11
61742;BME280;47650;49.848;9.620;2023-06-24T00:53:57;100477.09;;;15.45;74.35
61742;BME280;47650;49.848;9.620;2023-06-24T00:56:28;100499.19;;;15.55;74.27
61742;BME280;47650;49.848;9.620;2023-06-24T00:59:00;100495.84;;;15.53;74.14
61742;BME280;47650;49.848;9.620;2023-06-24T01:01:34;100498.13;;;15.48;74.17
61742;BME280;47650;49.848;9.620;2023-06-24T01:04:00;100508.81;;;15.48;74.77
61742;BME280;47650;49.848;9.620;2023-06-24T01:06:27;100507.47;;;15.44;74.69
61742;BME280;47650;49.848;9.620;2023-06-24T01:09:00;100502.41;;;15.41;74.32
61742;BME280;47650;49.848;9.620;2023-06-24T01:11:27;100504.72;;;15.36;74.46
61742;BME280;47650;49.848;9.620;2023-06-24T01:13:54;100493.28;;;15.26;74.48
61742;BME280;47650;49.848;9.620;2023-06-24T01:19:42;100497.88;;;15.15;74.69
61742;BME280;47650;49.848;9.620;2023-06-24T01:25:53;100488.09;;;15.06;75.23
61742;BME280;47650;49.848;9.620;2023-06-24T01:31:34;100504.56;;;15.01;75.86
61742;BME280;47650;49.848;9.620;2023-06-24T01:34:23;100502.81;;;14.92;76.01
61742;BME280;47650;49.848;9.620;2023-06-24T01:36:58;100498.63;;;14.90;75.30
61742;BME280;47650;49.848;9.620;2023-06-24T01:39:27;100493.47;;;14.88;75.05
61742;BME280;47650;49.848;9.620;2023-06-24T01:41:59;100479.78;;;14.73;75.64
61742;BME280;47650;49.848;9.620;2023-06-24T01:44:27;100447.16;;;14.52;75.23
61742;BME280;47650;49.848;9.620;2023-06-24T01:46:58;100488.75;;;14.72;74.98
61742;BME280;47650;49.848;9.620;2023-06-24T01:49:28;100493.13;;;14.73;74.97
61742;BME280;47650;49.848;9.620;2023-06-24T01:51:59;100496.09;;;14.70;74.88
61742;BME280;47650;49.848;9.620;2023-06-24T01:54:28;100458.44;;;14.45;75.15
61742;BME280;47650;49.848;9.620;2023-06-24T01:56:58;100460.13;;;14.46;75.41
61742;BME280;47650;49.848;9.620;2023-06-24T01:59:29;100489.53;;;14.64;75.36
61742;BME280;47650;49.848;9.620;2023-06-24T02:01:55;100439.28;;;14.32;75.55
61742;BME280;47650;49.848;9.620;2023-06-24T02:04:24;100499.66;;;14.61;75.86
61742;BME280;47650;49.848;9.620;2023-06-24T02:06:51;100473.47;;;14.46;75.18
61742;BME280;47650;49.848;9.620;2023-06-24T02:09:19;100464.69;;;14.36;74.89
61742;BME280;47650;49.848;9.620;2023-06-24T02:11:46;100488.19;;;14.51;74.75
61742;BME280;47650;49.848;9.620;2023-06-24T02:14:14;100441.75;;;14.16;75.22
61742;BME280;47650;49.848;9.620;2023-06-24T02:16:41;100455.56;;;14.29;75.40
61742;BME280;47650;49.848;9.620;2023-06-24T02:19:08;100470.31;;;14.33;75.29
61742;BME280;47650;49.848;9.620;2023-06-24T02:21:35;100483.50;;;14.35;75.41
61742;BME280;47650;49.848;9.620;2023-06-24T02:24:01;100479.38;;;14.40;75.75
61742;BME280;47650;49.848;9.620;2023-06-24T02:26:30;100490.19;;;14.39;76.42
61742;BME280;47650;49.848;9.620;2023-06-24T02:28:57;100484.88;;;14.39;76.70
61742;BME280;47650;49.848;9.620;2023-06-24T02:31:23;100485.69;;;14.39;77.04
61742;BME280;47650;49.848;9.620;2023-06-24T02:33:48;100491.03;;;14.39;77.32
61742;BME280;47650;49.848;9.620;2023-06-24T02:36:13;100492.72;;;14.40;76.82
61742;BME280;47650;49.848;9.620;2023-06-24T02:38:40;100491.34;;;14.36;77.30
61742;BME280;47650;49.848;9.620;2023-06-24T02:41:12;100465.44;;;14.19;76.60
61742;BME280;47650;49.848;9.620;2023-06-24T02:43:41;100483.66;;;14.33;76.42
61742;BME280;47650;49.848;9.620;2023-06-24T02:46:08;100469.50;;;14.23;76.82
61742;BME280;47650;49.848;9.620;2023-06-24T02:48:36;100488.56;;;14.28;76.56
61742;BME280;47650;49.848;9.620;2023-06-24T02:51:04;100489.69;;;14.25;76.46
61742;BME280;47650;49.848;9.620;2023-06-24T02:53:34;100492.06;;;14.28;76.42
61742;BME280;47650;49.848;9.620;2023-06-24T02:56:01;100488.72;;;14.26;76.51
61742;BME280;47650;49.848;9.620;2023-06-24T02:58:29;100494.88;;;14.27;76.67
61742;BME280;47650;49.848;9.620;2023-06-24T03:00:59;100500.69;;;14.22;76.27
61742;BME280;47650;49.848;9.620;2023-06-24T03:03:25;100497.16;;;14.22;75.87
61742;BME280;47650;49.848;9.620;2023-06-24T03:05:53;100497.44;;;14.19;75.23
61742;BME280;47650;49.848;9.620;2023-06-24T03:08:19;100488.34;;;14.11;75.36
61742;BME280;47650;49.848;9.620;2023-06-24T03:10:44;100452.53;;;13.86;75.15
61742;BME280;47650;49.848;9.620;2023-06-24T03:13:10;100455.75;;;13.90;75.28
61742;BME280;47650;49.848;9.620;2023-06-24T03:15:37;100504.22;;;14.13;75.14
61742;BME280;47650;49.848;9.620;2023-06-24T03:18:04;100509.69;;;14.11;75.09
61742;BME280;47650;49.848;9.620;2023-06-24T03:20:30;100512.50;;;14.10;74.89
61742;BME280;47650;49.848;9.620;2023-06-24T03:23:04;100513.38;;;14.10;75.04
61742;BME280;47650;49.848;9.620;2023-06-24T03:25:31;100513.38;;;14.10;75.25
61742;BME280;47650;49.848;9.620;2023-06-24T03:27:57;100506.63;;;14.06;75.52
61742;BME280;47650;49.848;9.620;2023-06-24T03:30:24;100512.06;;;14.15;75.74
61742;BME280;47650;49.848;9.620;2023-06-24T03:32:49;100415.88;;;13.61;75.45
61742;BME280;47650;49.848;9.620;2023-06-24T03:35:16;100514.44;;;14.18;75.42
61742;BME280;47650;49.848;9.620;2023-06-24T03:37:43;100509.94;;;14.18;75.38
61742;BME280;47650;49.848;9.620;2023-06-24T03:40:11;100512.19;;;14.23;75.42
61742;BME280;47650;49.848;9.620;2023-06-24T03:42:40;100510.78;;;14.19;74.98
61742;BME280;47650;49.848;9.620;2023-06-24T03:45:07;100518.91;;;14.27;74.88
61742;BME280;47650;49.848;9.620;2023-06-24T03:47:32;100511.44;;;14.30;74.47
61742;BME280;47650;49.848;9.620;2023-06-24T03:49:58;100491.44;;;14.17;74.42
61742;BME280;47650;49.848;9.620;2023-06-24T03:52:24;100474.03;;;14.13;74.11
61742;BME280;47650;49.848;9.620;2023-06-24T03:54:50;100513.78;;;14.43;74.12
61742;BME280;47650;49.848;9.620;2023-06-24T03:57:16;100518.50;;;14.49;73.88
61742;BME280;47650;49.848;9.620;2023-06-24T03:59:44;100516.53;;;14.52;73.75
61742;BME280;47650;49.848;9.620;2023-06-24T04:02:09;100449.38;;;14.10;73.32
61742;BME280;47650;49.848;9.620;2023-06-24T04:04:35;100525.34;;;14.62;73.10
61742;BME280;47650;49.848;9.620;2023-06-24T04:07:01;100531.41;;;14.64;72.53
61742;BME280;47650;49.848;9.620;2023-06-24T04:09:37;100523.00;;;14.59;72.90
61742;BME280;47650;49.848;9.620;2023-06-24T04:12:02;100537.28;;;14.68;72.97
61742;BME280;47650;49.848;9.620;2023-06-24T04:14:28;100504.31;;;14.59;72.97
61742;BME280;47650;49.848;9.620;2023-06-24T04:16:54;100538.91;;;14.78;72.70
61742;BME280;47650;49.848;9.620;2023-06-24T04:19:20;100498.97;;;14.59;72.50
61742;BME280;47650;49.848;9.620;2023-06-24T04:21:46;100548.75;;;14.96;72.77
61742;BME280;47650;49.848;9.620;2023-06-24T04:24:11;100544.63;;;15.01;72.73
61742;BME280;47650;49.848;9.620;2023-06-24T04:26:37;100548.94;;;15.12;72.54
61742;BME280;47650;49.848;9.620;2023-06-24T04:29:03;100547.88;;;15.23;72.94
61742;BME280;47650;49.848;9.620;2023-06-24T04:31:28;100521.47;;;15.20;73.00
61742;BME280;47650;49.848;9.620;2023-06-24T04:33:59;100538.22;;;15.48;72.72
61742;BME280;47650;49.848;9.620;2023-06-24T04:36:26;100543.03;;;15.63;72.77
61742;BME280;47650;49.848;9.620;2023-06-24T04:38:51;100549.53;;;15.78;72.70
61742;BME280;47650;49.848;9.620;2023-06-24T04:41:16;100548.13;;;15.92;72.10
61742;BME280;47650;49.848;9.620;2023-06-24T04:43:44;100529.22;;;15.93;72.25
61742;BME280;47650;49.848;9.620;2023-06-24T04:46:09;100551.09;;;16.15;71.88
61742;BME280;47650;49.848;9.620;2023-06-24T04:48:44;100553.66;;;16.25;71.63
61742;BME280;47650;49.848;9.620;2023-06-24T04:51:10;100534.75;;;16.26;71.88
61742;BME280;47650;49.848;9.620;2023-06-24T04:53:35;100554.34;;;16.35;72.18
61742;BME280;47650;49.848;9.620;2023-06-24T04:56:02;100544.00;;;16.32;71.76
61742;BME280;47650;49.848;9.620;2023-06-24T04:58:27;100559.41;;;16.38;71.62
61742;BME280;47650;49.848;9.620;2023-06-24T05:00:53;100555.94;;;16.46;72.28
61742;BME280;47650;49.848;9.620;2023-06-24T05:03:25;100561.25;;;16.38;72.02
61742;BME280;47650;49.848;9.620;2023-06-24T05:05:50;100561.13;;;16.47;72.42
61742;BME280;47650;49.848;9.620;2023-06-24T05:08:16;100554.09;;;16.46;72.25
61742;BME280;47650;49.848;9.620;2023-06-24T05:10:41;100555.53;;;16.32;73.40
61742;BME280;47650;49.848;9.620;2023-06-24T05:13:09;100558.63;;;16.54;73.33
61742;BME280;47650;49.848;9.620;2023-06-24T05:15:37;100524.44;;;16.40;72.57
61742;BME280;47650;49.848;9.620;2023-06-24T05:18:04;100551.94;;;16.50;72.42
61742;BME280;47650;49.848;9.620;2023-06-24T05:20:29;100564.94;;;16.10;75.07
61742;BME280;47650;49.848;9.620;2023-06-24T05:22:57;100560.91;;;16.06;75.56
61742;BME280;47650;49.848;9.620;2023-06-24T05:25:22;100575.56;;;15.76;77.50
61742;BME280;47650;49.848;9.620;2023-06-24T05:27:49;100577.25;;;15.77;77.70
61742;BME280;47650;49.848;9.620;2023-06-24T05:30:18;100516.13;;;15.82;77.15
61742;BME280;47650;49.848;9.620;2023-06-24T05:32:44;100570.47;;;16.43;75.06
61742;BME280;47650;49.848;9.620;2023-06-24T05:35:10;100545.13;;;16.29;74.53
61742;BME280;47650;49.848;9.620;2023-06-24T05:37:35;100571.09;;;16.71;74.76
61742;BME280;47650;49.848;9.620;2023-06-24T05:40:03;100571.19;;;16.88;73.97
61742;BME280;47650;49.848;9.620;2023-06-24T05:42:31;100564.69;;;16.64;74.39
61742;BME280;47650;49.848;9.620;2023-06-24T05:44:59;100561.34;;;16.62;74.96
61742;BME280;47650;49.848;9.620;2023-06-24T05:47:25;100457.50;;;16.31;73.91
61742;BME280;47650;49.848;9.620;2023-06-24T05:49:51;100497.47;;;16.76;72.99
61742;BME280;47650;49.848;9.620;2023-06-24T05:52:21;100449.56;;;16.64;72.20
61742;BME280;47650;49.848;9.620;2023-06-24T05:54:47;100548.97;;;17.37;71.63
61742;BME280;47650;49.848;9.620;2023-06-24T05:57:13;100567.75;;;17.61;71.24
61742;BME280;47650;49.848;9.620;2023-06-24T05:59:38;100498.72;;;17.22;70.49
61742;BME280;47650;49.848;9.620;2023-06-24T06:02:04;100504.41;;;17.52;70.27
61742;BME280;47650;49.848;9.620;2023-06-24T06:04:31;100566.75;;;17.87;70.42
61742;BME280;47650;49.848;9.620;2023-06-24T06:06:56;100565.22;;;18.09;69.89
61742;BME280;47650;49.848;9.620;2023-06-24T06:09:22;100556.03;;;17.87;69.76
61742;BME280;47650;49.848;9.620;2023-06-24T06:11:48;100575.63;;;17.63;70.01
61742;BME280;47650;49.848;9.620;2023-06-24T06:14:14;100562.25;;;17.55;71.51
61742;BME280;47650;49.848;9.620;2023-06-24T06:16:39;100510.78;;;17.76;70.39
61742;BME280;47650;49.848;9.620;2023-06-24T06:19:06;100526.19;;;17.98;69.79
61742;BME280;47650;49.848;9.620;2023-06-24T06:21:32;100563.91;;;18.53;69.02
61742;BME280;47650;49.848;9.620;2023-06-24T06:23:57;100504.44;;;18.33;67.72
61742;BME280;47650;49.848;9.620;2023-06-24T06:26:29;100539.06;;;18.59;67.04
61742;BME280;47650;49.848;9.620;2023-06-24T06:28:55;100556.59;;;18.86;67.38
61742;BME280;47650;49.848;9.620;2023-06-24T06:31:20;100543.03;;;19.03;66.91
61742;BME280;47650;49.848;9.620;2023-06-24T06:33:46;100562.63;;;18.80;66.63
61742;BME280;47650;49.848;9.620;2023-06-24T06:36:13;100557.47;;;18.22;68.55
61742;BME280;47650;49.848;9.620;2023-06-24T06:38:43;100531.06;;;18.82;66.79
61742;BME280;47650;49.848;9.620;2023-06-24T06:41:08;100533.88;;;18.89;66.24
61742;BME280;47650;49.848;9.620;2023-06-24T06:43:33;100496.47;;;18.79;66.07
61742;BME280;47650;49.848;9.620;2023-06-24T06:46:00;100547.06;;;19.07;65.52
61742;BME280;47650;49.848;9.620;2023-06-24T06:48:25;100511.31;;;18.98;66.86
61742;BME280;47650;49.848;9.620;2023-06-24T06:50:50;100537.69;;;19.64;65.22
61742;BME280;47650;49.848;9.620;2023-06-24T06:53:18;100538.19;;;19.67;63.82
61742;BME280;47650;49.848;9.620;2023-06-24T06:55:43;100524.97;;;19.81;64.40
61742;BME280;47650;49.848;9.620;2023-06-24T06:58:09;100540.13;;;20.12;63.57
61742;BME280;47650;49.848;9.620;2023-06-24T07:00:35;100536.03;;;20.45;62.92
61742;BME280;47650;49.848;9.620;2023-06-24T07:03:03;100464.91;;;20.25;62.75
61742;BME280;47650;49.848;9.620;2023-06-24T07:05:28;100522.81;;;20.80;61.96
61742;BME280;47650;49.848;9.620;2023-06-24T07:07:54;100473.88;;;20.62;62.04
61742;BME280;47650;49.848;9.620;2023-06-24T07:10:20;100520.13;;;21.02;61.53
61742;BME280;47650;49.848;9.620;2023-06-24T07:12:48;100513.66;;;21.18;61.31
61742;BME280;47650;49.848;9.620;2023-06-24T07:15:17;100525.81;;;20.26;63.94
61742;BME280;47650;49.848;9.620;2023-06-24T07:17:44;100502.56;;;20.55;63.14
61742;BME280;47650;49.848;9.620;2023-06-24T07:20:10;100517.44;;;21.23;61.17
61742;BME280;47650;49.848;9.620;2023-06-24T07:22:36;100520.25;;;21.58;60.74
61742;BME280;47650;49.848;9.620;2023-06-24T07:25:01;100455.78;;;21.20;60.60
61742;BME280;47650;49.848;9.620;2023-06-24T07:27:27;100502.25;;;20.79;62.57
61742;BME280;47650;49.848;9.620;2023-06-24T07:29:55;100513.44;;;21.41;61.31
61742;BME280;47650;49.848;9.620;2023-06-24T07:32:21;100510.56;;;21.92;59.82
61742;BME280;47650;49.848;9.620;2023-06-24T07:34:46;100508.53;;;22.01;58.76
61742;BME280;47650;49.848;9.620;2023-06-24T07:37:12;100514.19;;;22.48;57.86
61742;BME280;47650;49.848;9.620;2023-06-24T07:39:38;100515.53;;;22.72;56.86
61742;BME280;47650;49.848;9.620;2023-06-24T07:42:03;100504.94;;;22.84;56.58
61742;BME280;47650;49.848;9.620;2023-06-24T07:44:29;100498.19;;;23.21;55.81
61742;BME280;47650;49.848;9.620;2023-06-24T07:46:54;100495.50;;;23.35;55.84
61742;BME280;47650;49.848;9.620;2023-06-24T07:49:19;100501.50;;;23.70;54.76
61742;BME280;47650;49.848;9.620;2023-06-24T07:51:47;100494.03;;;23.19;52.47
61742;BME280;47650;49.848;9.620;2023-06-24T07:54:12;100503.78;;;23.73;50.94
61742;BME280;47650;49.848;9.620;2023-06-24T07:56:38;100505.44;;;24.08;50.03
61742;BME280;47650;49.848;9.620;2023-06-24T07:59:03;100501.78;;;24.40;49.73
61742;BME280;47650;49.848;9.620;2023-06-24T08:01:28;100505.19;;;24.23;48.69
61742;BME280;47650;49.848;9.620;2023-06-24T08:03:55;100496.88;;;24.69;47.61
61742;BME280;47650;49.848;9.620;2023-06-24T08:08:48;100494.31;;;25.13;46.48
61742;BME280;47650;49.848;9.620;2023-06-24T08:11:13;100475.22;;;24.94;45.78
61742;BME280;47650;49.848;9.620;2023-06-24T08:13:39;100482.84;;;25.11;47.60
61742;BME280;47650;49.848;9.620;2023-06-24T08:16:07;100491.72;;;25.31;44.39
61742;BME280;47650;49.848;9.620;2023-06-24T08:18:32;100495.03;;;25.33;43.47
61742;BME280;47650;49.848;9.620;2023-06-24T08:20:59;100484.88;;;25.47;43.40
61742;BME280;47650;49.848;9.620;2023-06-24T08:23:24;100494.03;;;24.44;45.34
61742;BME280;47650;49.848;9.620;2023-06-24T08:25:51;100473.44;;;25.13;44.34
61742;BME280;47650;49.848;9.620;2023-06-24T08:28:19;100490.53;;;25.46;43.62
61742;BME280;47650;49.848;9.620;2023-06-24T08:30:45;100490.66;;;25.01;44.12
61742;BME280;47650;49.848;9.620;2023-06-24T08:33:11;100486.19;;;25.63;43.22
61742;BME280;47650;49.848;9.620;2023-06-24T08:35:36;100446.63;;;25.24;42.92
61742;BME280;47650;49.848;9.620;2023-06-24T08:38:01;100467.06;;;25.77;42.19
61742;BME280;47650;49.848;9.620;2023-06-24T08:40:27;100430.06;;;25.57;39.81
61742;BME280;47650;49.848;9.620;2023-06-24T08:42:52;100426.47;;;25.82;39.28
61742;BME280;47650;49.848;9.620;2023-06-24T08:45:19;100468.94;;;26.50;39.02
61742;BME280;47650;49.848;9.620;2023-06-24T08:47:46;100433.09;;;26.23;39.24
61742;BME280;47650;49.848;9.620;2023-06-24T08:50:13;100472.22;;;27.01;39.58
61742;BME280;47650;49.848;9.620;2023-06-24T08:52:42;100474.84;;;27.19;36.75
61742;BME280;47650;49.848;9.620;2023-06-24T08:55:10;100470.28;;;27.32;34.77
61742;BME280;47650;49.848;9.620;2023-06-24T08:57:40;100467.81;;;27.66;33.78
61742;BME280;47650;49.848;9.620;2023-06-24T09:00:07;100477.88;;;28.01;34.12
61742;BME280;47650;49.848;9.620;2023-06-24T09:02:38;100467.56;;;28.03;33.82
61742;BME280;47650;49.848;9.620;2023-06-24T09:05:06;100463.63;;;28.22;34.31
61742;BME280;47650;49.848;9.620;2023-06-24T09:07:32;100458.72;;;28.65;32.22
61742;BME280;47650;49.848;9.620;2023-06-24T09:09:57;100455.34;;;28.46;32.64
61742;BME280;47650;49.848;9.620;2023-06-24T09:12:24;100458.69;;;28.94;33.34
61742;BME280;47650;49.848;9.620;2023-06-24T09:14:50;100441.69;;;29.37;31.67
61742;BME280;47650;49.848;9.620;2023-06-24T09:17:18;100438.31;;;29.69;30.98
61742;BME280;47650;49.848;9.620;2023-06-24T09:19:43;100452.63;;;28.46;32.24
61742;BME280;47650;49.848;9.620;2023-06-24T09:22:10;100455.28;;;28.29;32.78
61742;BME280;47650;49.848;9.620;2023-06-24T09:24:41;100435.53;;;28.50;32.42
61742;BME280;47650;49.848;9.620;2023-06-24T09:27:07;100440.06;;;28.74;32.12
61742;BME280;47650;49.848;9.620;2023-06-24T09:29:35;100435.41;;;28.57;31.55
61742;BME280;47650;49.848;9.620;2023-06-24T09:32:04;100426.03;;;29.50;30.43
61742;BME280;47650;49.848;9.620;2023-06-24T09:34:31;100432.72;;;30.97;28.33
61742;BME280;47650;49.848;9.620;2023-06-24T09:36:57;100407.66;;;33.85;24.85
61742;BME280;47650;49.848;9.620;2023-06-24T09:39:24;100403.44;;;37.41;21.82
61742;BME280;47650;49.848;9.620;2023-06-24T09:41:54;100368.16;;;36.15;21.37
61742;BME280;47650;49.848;9.620;2023-06-24T09:44:20;100417.78;;;35.77;22.81
61742;BME280;47650;49.848;9.620;2023-06-24T09:46:46;100401.56;;;39.82;18.52
61742;BME280;47650;49.848;9.620;2023-06-24T09:49:11;100383.00;;;41.64;16.29
61742;BME280;47650;49.848;9.620;2023-06-24T09:51:44;100410.63;;;34.94;22.52
61742;BME280;47650;49.848;9.620;2023-06-24T09:54:12;100324.22;;;38.10;19.66
61742;BME280;47650;49.848;9.620;2023-06-24T09:56:42;100408.25;;;35.65;21.97
61742;BME280;47650;49.848;9.620;2023-06-24T09:59:09;100381.69;;;40.67;17.24
61742;BME280;47650;49.848;9.620;2023-06-24T10:01:38;100363.22;;;42.29;15.99
61742;BME280;47650;49.848;9.620;2023-06-24T10:04:08;100368.09;;;44.22;15.19
61742;BME280;47650;49.848;9.620;2023-06-24T10:06:34;100357.22;;;43.06;14.54
61742;BME280;47650;49.848;9.620;2023-06-24T10:09:01;100319.91;;;45.01;13.39
61742;BME280;47650;49.848;9.620;2023-06-24T10:11:27;100357.06;;;45.18;13.59
61742;BME280;47650;49.848;9.620;2023-06-24T10:13:59;100350.72;;;45.53;12.97
61742;BME280;47650;49.848;9.620;2023-06-24T10:16:24;100347.34;;;45.98;13.35
61742;BME280;47650;49.848;9.620;2023-06-24T10:18:50;100355.72;;;45.28;13.43
61742;BME280;47650;49.848;9.620;2023-06-24T10:21:16;100338.72;;;46.07;13.00
61742;BME280;47650;49.848;9.620;2023-06-24T10:26:29;100338.69;;;46.66;12.37
61742;BME280;47650;49.848;9.620;2023-06-24T10:37:04;100324.91;;;49.44;10.17
61742;BME280;47650;49.848;9.620;2023-06-24T10:39:45;100318.75;;;48.05;11.28
61742;BME280;47650;49.848;9.620;2023-06-24T10:42:36;100315.69;;;48.99;10.94
61742;BME280;47650;49.848;9.620;2023-06-24T10:45:23;100305.44;;;50.05;9.73
61742;BME280;47650;49.848;9.620;2023-06-24T10:47:50;100307.41;;;49.17;10.30
61742;BME280;47650;49.848;9.620;2023-06-24T10:50:20;100297.50;;;50.54;9.90
61742;BME280;47650;49.848;9.620;2023-06-24T10:52:49;100307.22;;;45.39;12.15
61742;BME280;47650;49.848;9.620;2023-06-24T10:55:18;100289.28;;;46.84;11.35
61742;BME280;47650;49.848;9.620;2023-06-24T10:57:45;100285.56;;;49.07;9.94
61742;BME280;47650;49.848;9.620;2023-06-24T11:00:13;100289.06;;;49.45;9.94
61742;BME280;47650;49.848;9.620;2023-06-24T11:02:41;100296.22;;;48.38;10.67
61742;BME280;47650;49.848;9.620;2023-06-24T11:05:07;100306.72;;;44.86;12.44
61742;BME280;47650;49.848;9.620;2023-06-24T11:07:35;100259.66;;;45.59;12.09
61742;BME280;47650;49.848;9.620;2023-06-24T11:12:33;100252.69;;;40.59;16.22
61742;BME280;47650;49.848;9.620;2023-06-24T11:15:03;100290.72;;;44.26;13.78
61742;BME280;47650;49.848;9.620;2023-06-24T11:17:30;100273.41;;;46.92;12.38
61742;BME280;47650;49.848;9.620;2023-06-24T11:19:57;100290.44;;;43.87;14.32
61742;BME280;47650;49.848;9.620;2023-06-24T11:22:25;100271.47;;;47.80;11.75
61742;BME280;47650;49.848;9.620;2023-06-24T11:24:50;100270.66;;;48.51;11.01
61742;BME280;47650;49.848;9.620;2023-06-24T11:27:24;100231.75;;;50.29;9.87
61742;BME280;47650;49.848;9.620;2023-06-24T11:29:51;100275.44;;;48.50;10.13
61742;BME280;47650;49.848;9.620;2023-06-24T11:32:18;100284.97;;;44.07;13.14
61742;BME280;47650;49.848;9.620;2023-06-24T11:34:44;100267.47;;;44.22;12.88
61742;BME280;47650;49.848;9.620;2023-06-24T11:37:13;100237.13;;;46.10;11.44
61742;BME280;47650;49.848;9.620;2023-06-24T11:39:38;100260.56;;;46.91;11.71
61742;BME280;47650;49.848;9.620;2023-06-24T11:42:06;100252.91;;;48.95;10.34
61742;BME280;47650;49.848;9.620;2023-06-24T11:44:33;100269.38;;;46.24;11.64
61742;BME280;47650;49.848;9.620;2023-06-24T11:47:06;100282.38;;;41.53;15.66
61742;BME280;47650;49.848;9.620;2023-06-24T11:49:47;100278.03;;;41.44;16.24
61742;BME280;47650;49.848;9.620;2023-06-24T11:52:13;100281.88;;;40.18;17.34
61742;BME280;47650;49.848;9.620;2023-06-24T11:54:45;100296.25;;;35.88;21.28
61742;BME280;47650;49.848;9.620;2023-06-24T11:57:10;100283.03;;;37.72;19.66
61742;BME280;47650;49.848;9.620;2023-06-24T11:59:37;100289.38;;;36.89;20.48
61742;BME280;47650;49.848;9.620;2023-06-24T12:02:02;100281.84;;;36.62;22.37
61742;BME280;47650;49.848;9.620;2023-06-24T12:04:30;100278.53;;;36.60;21.96
61742;BME280;47650;49.848;9.620;2023-06-24T12:06:57;100283.44;;;36.96;21.71
61742;BME280;47650;49.848;9.620;2023-06-24T12:09:23;100281.69;;;38.73;19.90
61742;BME280;47650;49.848;9.620;2023-06-24T12:11:49;100278.47;;;38.26;20.85
61742;BME280;47650;49.848;9.620;2023-06-24T12:14:26;100267.47;;;40.98;17.64
61742;BME280;47650;49.848;9.620;2023-06-24T12:16:51;100261.97;;;40.81;17.61
61742;BME280;47650;49.848;9.620;2023-06-24T12:19:18;100184.50;;;41.72;15.80
61742;BME280;47650;49.848;9.620;2023-06-24T12:21:46;100250.00;;;41.91;15.79
61742;BME280;47650;49.848;9.620;2023-06-24T12:24:12;100249.47;;;44.07;14.51
61742;BME280;47650;49.848;9.620;2023-06-24T12:26:38;100232.50;;;46.91;12.72
61742;BME280;47650;49.848;9.620;2023-06-24T12:29:03;100233.59;;;48.90;11.24
61742;BME280;47650;49.848;9.620;2023-06-24T12:31:30;100227.16;;;46.36;11.85
61742;BME280;47650;49.848;9.620;2023-06-24T12:33:55;100191.09;;;45.33;12.72
61742;BME280;47650;49.848;9.620;2023-06-24T12:36:23;100236.56;;;44.31;13.96
61742;BME280;47650;49.848;9.620;2023-06-24T12:38:48;100226.72;;;43.65;13.89
61742;BME280;47650;49.848;9.620;2023-06-24T12:41:13;100234.31;;;42.53;15.64
61742;BME280;47650;49.848;9.620;2023-06-24T12:43:40;100177.25;;;41.38;16.73
61742;BME280;47650;49.848;9.620;2023-06-24T12:46:05;100230.53;;;41.70;16.96
61742;BME280;47650;49.848;9.620;2023-06-24T12:48:30;100182.31;;;44.32;13.51
61742;BME280;47650;49.848;9.620;2023-06-24T12:50:56;100206.66;;;45.50;12.88
61742;BME280;47650;49.848;9.620;2023-06-24T12:53:21;100180.06;;;47.93;11.05
61742;BME280;47650;49.848;9.620;2023-06-24T12:55:47;100218.00;;;41.34;15.79
61742;BME280;47650;49.848;9.620;2023-06-24T12:58:19;100224.34;;;38.83;17.87
61742;BME280;47650;49.848;9.620;2023-06-24T13:00:44;100224.78;;;38.13;18.41
61742;BME280;47650;49.848;9.620;2023-06-24T13:03:10;100223.06;;;39.64;18.10
61742;BME280;47650;49.848;9.620;2023-06-24T13:05:36;100226.81;;;38.08;19.45
61742;BME280;47650;49.848;9.620;2023-06-24T13:08:01;100088.44;;;38.56;17.49
61742;BME280;47650;49.848;9.620;2023-06-24T13:10:27;100211.69;;;38.99;18.02
61742;BME280;47650;49.848;9.620;2023-06-24T13:12:52;100212.94;;;39.51;17.27
61742;BME280;47650;49.848;9.620;2023-06-24T13:15:18;100206.47;;;40.93;16.60